createdAt,value
2023-04-01T00:02:30.129Z,9.67
2023-04-01T00:07:32.872Z,9.88
2023-04-01T00:12:35.689Z,10.07
2023-04-01T00:17:38.703Z,10.21
2023-04-01T00:22:42.005Z,10.15
2023-04-01T00:27:44.252Z,10.04
2023-04-01T00:32:46.865Z,9.95
2023-04-01T00:37:49.642Z,9.81
2023-04-01T00:42:51.865Z,9.88
2023-04-01T00:47:54.488Z,9.84
2023-04-01T00:52:56.991Z,9.92
2023-04-01T00:58:01.160Z,10.05
2023-04-01T01:03:05.207Z,10.16
2023-04-01T01:08:16.749Z,10.18
2023-04-01T01:13:23.073Z,10.18
2023-04-01T01:18:42.331Z,10.24
2023-04-01T01:24:04.262Z,10.31
2023-04-01T01:29:15.685Z,10.22
2023-04-01T01:34:24.422Z,10.16
2023-04-01T01:39:30.286Z,10.24
2023-04-01T01:44:34.909Z,10.27
2023-04-01T01:49:39.503Z,10.29
2023-04-01T01:54:52.490Z,10.15
2023-04-01T01:59:59.807Z,10.07
2023-04-01T02:05:03.973Z,10.13
2023-04-01T02:10:07.479Z,10.21
2023-04-01T02:15:13.524Z,10.20
2023-04-01T02:20:22.497Z,10.26
2023-04-01T02:25:29.507Z,10.36
2023-04-01T02:30:34.533Z,10.54
2023-04-01T02:35:38.644Z,10.58
2023-04-01T02:40:51.889Z,10.48
2023-04-01T02:45:54.630Z,10.48
2023-04-01T02:50:57.256Z,10.37
2023-04-01T02:55:59.485Z,10.18
2023-04-01T03:01:01.834Z,9.95
2023-04-01T03:06:13.762Z,9.90
2023-04-01T03:11:16.041Z,9.87
2023-04-01T03:16:18.368Z,9.75
2023-04-01T03:21:24.824Z,9.70
2023-04-01T03:26:30.204Z,9.54
2023-04-01T03:31:32.666Z,9.40
2023-04-01T03:36:34.967Z,9.26
2023-04-01T03:41:39.370Z,9.05
2023-04-01T03:46:42.164Z,9.15
2023-04-01T03:51:44.947Z,8.99
2023-04-01T03:56:47.808Z,8.92
2023-04-01T04:01:50.067Z,8.78
2023-04-01T04:06:52.310Z,8.82
2023-04-01T04:11:54.643Z,8.57
2023-04-01T04:16:56.832Z,8.53
2023-04-01T04:22:01.725Z,8.82
2023-04-01T04:27:04.523Z,8.83
2023-04-01T04:32:06.975Z,8.57
2023-04-01T04:37:09.388Z,8.64
2023-04-01T04:42:11.567Z,8.54
2023-04-01T04:47:15.532Z,8.72
2023-04-01T04:52:17.805Z,8.89
2023-04-01T04:57:20.064Z,8.99
2023-04-01T05:02:24.874Z,9.10
2023-04-01T05:07:28.730Z,9.14
2023-04-01T05:12:30.962Z,9.20
2023-04-01T05:17:34.455Z,9.27
2023-04-01T05:22:36.654Z,9.35
2023-04-01T05:27:38.909Z,9.48
2023-04-01T05:32:41.329Z,9.66
2023-04-01T05:37:43.531Z,9.77
2023-04-01T05:42:45.897Z,9.94
2023-04-01T05:47:48.091Z,10.06
2023-04-01T05:52:50.345Z,10.25
2023-04-01T05:57:52.515Z,10.47
2023-04-01T06:02:55.606Z,10.70
2023-04-01T06:08:05.193Z,10.91
2023-04-01T06:13:26.343Z,11.22
2023-04-01T06:18:51.056Z,11.67
2023-04-01T06:23:59.053Z,11.90
2023-04-01T06:29:29.971Z,11.52
2023-04-01T06:34:50.777Z,11.43
2023-04-01T06:40:26.774Z,11.62
2023-04-01T06:45:32.467Z,11.71
2023-04-01T06:51:05.741Z,11.72
2023-04-01T06:56:20.710Z,11.76
2023-04-01T07:01:49.754Z,11.75
2023-04-01T07:06:57.071Z,11.83
2023-04-01T07:12:07.317Z,12.04
2023-04-01T07:17:25.710Z,12.02
2023-04-01T07:22:39.236Z,12.37
2023-04-01T07:27:45.668Z,12.59
2023-04-01T07:33:00.628Z,12.60
2023-04-01T07:38:43.048Z,12.93
2023-04-01T07:43:54.389Z,13.17
2023-04-01T07:49:19.374Z,13.49
2023-04-01T07:54:41.785Z,13.86
2023-04-01T08:00:15.614Z,13.93
2023-04-01T08:05:27.081Z,14.03
2023-04-01T08:10:53.698Z,14.95
2023-04-01T08:16:17.347Z,14.89
2023-04-01T08:21:31.435Z,16.01
2023-04-01T08:26:41.593Z,16.89
2023-04-01T08:31:56.305Z,16.72
2023-04-01T08:37:04.317Z,16.70
2023-04-01T08:42:37.805Z,16.61
2023-04-01T08:48:20.896Z,16.20
2023-04-01T08:54:02.461Z,16.71
2023-04-01T08:59:20.051Z,15.86
2023-04-01T09:04:34.580Z,16.19
2023-04-01T09:10:14.382Z,15.85
2023-04-01T09:15:28.878Z,16.62
2023-04-01T09:21:08.881Z,16.38
2023-04-01T09:26:38.921Z,17.55
2023-04-01T09:32:06.984Z,19.27
2023-04-01T09:37:39.987Z,19.59
2023-04-01T09:43:07.581Z,16.69
2023-04-01T09:48:18.966Z,15.03
2023-04-01T09:53:37.745Z,14.29
2023-04-01T09:58:58.461Z,13.91
2023-04-01T10:04:06.055Z,13.87
2023-04-01T10:09:39.080Z,14.55
2023-04-01T10:15:25.676Z,14.94
2023-04-01T10:20:57.576Z,15.40
2023-04-01T10:26:16.821Z,15.03
2023-04-01T10:31:35.474Z,13.95
2023-04-01T10:37:17.416Z,13.94
2023-04-01T10:42:56.940Z,13.92
2023-04-01T10:48:23.483Z,14.46
2023-04-01T10:54:08.000Z,14.74
2023-04-01T10:59:25.208Z,15.12
2023-04-01T11:04:55.393Z,16.09
2023-04-01T11:10:13.605Z,15.69
2023-04-01T11:15:31.256Z,15.70
2023-04-01T11:21:04.781Z,15.99
2023-04-01T11:26:32.255Z,17.25
2023-04-01T11:32:19.403Z,17.94
2023-04-01T11:37:56.058Z,15.33
2023-04-01T11:43:35.913Z,14.22
2023-04-01T11:49:05.802Z,13.90
2023-04-01T11:54:19.742Z,13.51
2023-04-01T11:59:41.582Z,13.50
2023-04-01T12:05:09.087Z,13.60
2023-04-01T12:10:42.994Z,14.23
2023-04-01T12:16:22.679Z,15.48
2023-04-01T12:21:43.479Z,17.49
2023-04-01T12:27:31.484Z,17.70
2023-04-01T12:32:55.233Z,17.07
2023-04-01T12:38:34.761Z,16.41
2023-04-01T12:43:58.350Z,16.10
2023-04-01T12:49:06.630Z,19.37
2023-04-01T12:54:36.729Z,23.29
2023-04-01T12:59:38.814Z,24.20
2023-04-01T13:04:46.777Z,21.15
2023-04-01T13:10:05.074Z,20.82
2023-04-01T13:15:09.967Z,25.39
2023-04-01T13:20:38.440Z,26.17
2023-04-01T13:26:07.071Z,28.03
2023-04-01T13:31:24.602Z,26.31
2023-04-01T13:36:42.872Z,26.26
2023-04-01T13:42:14.431Z,27.19
2023-04-01T13:47:48.905Z,26.01
2023-04-01T13:53:08.182Z,25.27
2023-04-01T13:58:33.484Z,24.13
2023-04-01T14:04:10.755Z,26.23
2023-04-01T14:09:37.366Z,23.71
2023-04-01T14:14:48.746Z,19.98
2023-04-01T14:20:08.676Z,22.05
2023-04-01T14:25:19.620Z,25.54
2023-04-01T14:30:24.780Z,25.59
2023-04-01T14:35:47.555Z,25.53
2023-04-01T14:41:03.922Z,25.61
2023-04-01T14:46:24.877Z,23.36
2023-04-01T14:51:34.959Z,25.02
2023-04-01T14:56:37.088Z,25.16
2023-04-01T15:02:07.855Z,24.21
2023-04-01T15:07:47.636Z,23.00
2023-04-01T15:13:11.353Z,20.14
2023-04-01T15:18:13.569Z,17.65
2023-04-01T15:23:30.508Z,19.35
2023-04-01T15:29:08.813Z,20.22
2023-04-01T15:34:47.109Z,21.34
2023-04-01T15:39:58.529Z,21.35
2023-04-01T15:45:27.380Z,18.96
2023-04-01T15:50:32.678Z,17.49
2023-04-01T15:56:00.608Z,17.05
2023-04-01T16:01:17.396Z,16.47
2023-04-01T16:06:46.813Z,16.70
2023-04-01T16:11:48.879Z,16.89
2023-04-01T16:16:56.757Z,16.18
2023-04-01T16:22:32.137Z,16.28
2023-04-01T16:27:56.230Z,16.20
2023-04-01T16:33:14.487Z,16.27
2023-04-01T16:38:37.434Z,16.05
2023-04-01T16:43:48.891Z,16.10
2023-04-01T16:49:15.012Z,15.86
2023-04-01T16:54:29.142Z,15.37
2023-04-01T16:59:58.856Z,14.91
2023-04-01T17:05:13.014Z,14.44
2023-04-01T17:10:37.292Z,14.10
2023-04-01T17:15:53.694Z,13.77
2023-04-01T17:21:22.186Z,13.48
2023-04-01T17:26:33.274Z,13.27
2023-04-01T17:32:03.821Z,13.08
2023-04-01T17:37:32.980Z,12.95
2023-04-01T17:42:55.368Z,12.75
2023-04-01T17:48:16.437Z,12.69
2023-04-01T17:53:44.610Z,12.62
2023-04-01T17:59:28.659Z,12.43
2023-04-01T18:04:53.640Z,12.31
2023-04-01T18:10:02.643Z,12.01
2023-04-01T18:15:27.808Z,11.94
2023-04-01T18:20:48.033Z,11.89
2023-04-01T18:25:56.586Z,11.92
2023-04-01T18:31:06.955Z,11.90
2023-04-01T18:36:17.360Z,11.69
2023-04-01T18:41:44.076Z,11.68
2023-04-01T18:47:03.765Z,11.75
2023-04-01T18:52:34.801Z,11.71
2023-04-01T18:57:51.476Z,11.55
2023-04-01T19:02:59.907Z,11.51
2023-04-01T19:08:31.917Z,11.44
2023-04-01T19:13:48.083Z,11.49
2023-04-01T19:19:16.244Z,11.32
2023-04-01T19:25:16.724Z,11.31
2023-04-01T19:30:57.640Z,11.26
2023-04-01T19:36:21.906Z,11.31
2023-04-01T19:41:45.651Z,11.02
2023-04-01T19:46:54.569Z,10.99
2023-04-01T19:52:29.086Z,11.06
2023-04-01T19:57:43.609Z,11.03
2023-04-01T20:03:02.403Z,10.86
2023-04-01T20:08:27.098Z,10.95
2023-04-01T20:13:38.423Z,10.71
2023-04-01T20:18:50.563Z,10.59
2023-04-01T20:24:14.510Z,10.48
2023-04-01T20:29:16.589Z,10.41
2023-04-01T20:34:34.383Z,10.02
2023-04-01T20:39:36.928Z,9.72
2023-04-01T20:44:43.100Z,9.67
2023-04-01T20:50:01.545Z,9.56
2023-04-01T20:55:22.113Z,9.67
2023-04-01T21:00:53.512Z,9.48
2023-04-01T21:06:16.986Z,9.24
2023-04-01T21:11:56.317Z,9.34
2023-04-01T21:17:01.129Z,9.36
2023-04-01T21:22:24.499Z,9.29
2023-04-01T21:27:48.962Z,9.40
2023-04-01T21:33:17.450Z,9.23
2023-04-01T21:38:28.792Z,9.08
2023-04-01T21:43:53.622Z,9.07
2023-04-01T21:49:38.530Z,9.09
2023-04-01T21:55:08.356Z,9.10
2023-04-01T22:00:18.569Z,9.63
2023-04-01T22:05:48.511Z,9.91
2023-04-01T22:10:59.916Z,10.15
2023-04-01T22:16:26.934Z,10.25
2023-04-01T22:21:39.316Z,10.22
2023-04-01T22:26:50.594Z,10.18
2023-04-01T22:32:09.345Z,10.07
2023-04-01T22:37:29.752Z,10.09
2023-04-01T22:43:09.111Z,9.86
2023-04-01T22:48:30.041Z,9.66
2023-04-01T22:54:17.276Z,9.67
2023-04-01T22:59:25.296Z,9.63
2023-04-01T23:04:34.763Z,9.56
2023-04-01T23:09:38.746Z,9.28
2023-04-01T23:14:47.613Z,9.17
2023-04-01T23:19:58.605Z,9.14
2023-04-01T23:25:21.924Z,9.14
2023-04-01T23:30:39.440Z,9.18
2023-04-01T23:35:55.042Z,9.12
2023-04-01T23:40:57.229Z,9.24
2023-04-01T23:46:05.224Z,9.19
2023-04-01T23:51:39.790Z,8.99
2023-04-01T23:56:47.441Z,8.77
